Deloraine, Canada
Current Conditions -  °F | °C
As of 7:55 AM on Wednesday 26 Nov 2014 (Local Time) from K06D Reporting Station
Overcast Overcast  
Wind Chill: -21°   Ceiling: 5000
Heat Index: -4°   Visibility: 10mi
Dew Point: -11°   Wind: 10mph
Humidity: 71%   Direction: 360°N
Pressure: 30.33"   Gusts: NA
Location:  49.18°N, 100.5°W
Report Text: K06D 261355Z AUTO 36009KT 10SM OVC050 M20/M24 A3033 RMK AO2
Loading
Personal Weather Stations






























Interactive Weather Map New forecast layout! Learn more

10-Day Weather Forecast

Advertisements
Track Severe Weather on mobile